Wetterstation Vordersexau
Wetterdaten: Woche 17.09.18 - 23.09.18 (KW38)
Datum Zeit Temp. A. Feuchte A. Luftdruck Regen Wind Richtung Taupunkt Windchill Windben
17.09.2018 00:00 14,8 C 81 % 1018,2 hPa 0,0 l/m 0,0 km/h O-NO 11,6 C 14,8 C 0,0 km/h
17.09.2018 01:00 13,9 C 82 % 1018,6 hPa 0,0 l/m 0,0 km/h O-NO 10,9 C 13,9 C 0,0 km/h
17.09.2018 02:00 12,9 C 83 % 1018,2 hPa 0,0 l/m 0,0 km/h O-NO 10,1 C 12,9 C 0,0 km/h
17.09.2018 03:00 12,5 C 83 % 1018,2 hPa 0,0 l/m 0,0 km/h O-NO 9,7 C 12,5 C 0,0 km/h
17.09.2018 04:00 12,4 C 83 % 1018,2 hPa 0,0 l/m 0,0 km/h O-NO 9,6 C 12,4 C 0,0 km/h
17.09.2018 05:00 12,3 C 83 % 1018,3 hPa 0,0 l/m 0,0 km/h O 9,5 C 12,3 C 0,0 km/h
17.09.2018 06:00 12,3 C 83 % 1018,6 hPa 0,0 l/m 0,0 km/h O 9,5 C 12,3 C 0,0 km/h
17.09.2018 07:00 12,3 C 83 % 1018,6 hPa 0,0 l/m 0,0 km/h O-SO 9,5 C 12,3 C 0,0 km/h
17.09.2018 08:00 19,8 C 76 % 1018,6 hPa 0,0 l/m 0,0 km/h O 15,4 C 19,8 C 0,0 km/h
17.09.2018 09:00 21,9 C 66 % 1018,6 hPa 0,0 l/m 0,0 km/h O-SO 15,3 C 21,9 C 0,0 km/h
17.09.2018 10:00 21,2 C 65 % 1018,3 hPa 0,0 l/m 0,0 km/h N 14,4 C 21,2 C 0,0 km/h
17.09.2018 11:00 22,6 C 59 % 1017,6 hPa 0,0 l/m 0,0 km/h W-SW 14,2 C 22,6 C 0,0 km/h
17.09.2018 12:00 24,9 C 51 % 1017,4 hPa 0,0 l/m 8,4 km/h NW 14,1 C 24,4 C 4,7 km/h
17.09.2018 13:00 26,4 C 45 % 1016,7 hPa 0,0 l/m 0,0 km/h O-NO 13,5 C 26,4 C 0,0 km/h
17.09.2018 14:00 27,5 C 39 % 1016,2 hPa 0,0 l/m 2,6 km/h W 12,3 C 27,5 C 1,4 km/h
17.09.2018 15:00 28,3 C 38 % 1015,5 hPa 0,0 l/m 0,0 km/h W 12,6 C 28,3 C 0,0 km/h
17.09.2018 16:00 28,6 C 35 % 1014,8 hPa 0,0 l/m 0,0 km/h W-SW 11,6 C 28,6 C 0,0 km/h
17.09.2018 17:00 31,9 C 30 % 1014,1 hPa 0,0 l/m 0,0 km/h W-SW 12,1 C 31,9 C 0,0 km/h
17.09.2018 18:00 27,6 C 40 % 1014,0 hPa 0,0 l/m 0,0 km/h O-SO 12,8 C 27,6 C 0,0 km/h
17.09.2018 19:00 22,6 C 51 % 1014,2 hPa 0,0 l/m 0,0 km/h O-NO 11,9 C 22,6 C 0,0 km/h
17.09.2018 20:00 20,4 C 58 % 1014,3 hPa 0,0 l/m 0,0 km/h SO 11,9 C 20,4 C 0,0 km/h
17.09.2018 21:00 19,0 C 61 % 1014,1 hPa 0,0 l/m 12,3 km/h SO 11,3 C 16,8 C 6,8 km/h
17.09.2018 22:00 17,8 C 65 % 1014,0 hPa 0,0 l/m 0,0 km/h O-SO 11,1 C 17,8 C 0,0 km/h
17.09.2018 23:00 17,1 C 66 % 1014,0 hPa 0,0 l/m 0,0 km/h O-NO 10,7 C 17,1 C 0,0 km/h
18.09.2018 00:00 15,5 C 71 % 1014,2 hPa 0,0 l/m 0,0 km/h O-NO 10,3 C 15,5 C 0,0 km/h
18.09.2018 01:00 14,9 C 74 % 1014,1 hPa 0,0 l/m 0,0 km/h O 10,3 C 14,9 C 0,0 km/h
18.09.2018 02:00 14,4 C 75 % 1013,7 hPa 0,0 l/m 0,0 km/h O 10,0 C 14,4 C 0,0 km/h
18.09.2018 03:00 14,4 C 76 % 1013,6 hPa 0,0 l/m 0,0 km/h O 10,2 C 14,4 C 0,0 km/h
18.09.2018 04:00 13,9 C 76 % 1014,0 hPa 0,0 l/m 0,0 km/h O-NO 9,7 C 13,9 C 0,0 km/h
18.09.2018 05:00 12,9 C 80 % 1014,1 hPa 0,0 l/m 0,0 km/h O-NO 9,5 C 12,9 C 0,0 km/h
18.09.2018 06:00 13,4 C 81 % 1013,9 hPa 0,0 l/m 0,0 km/h O 10,2 C 13,4 C 0,0 km/h
18.09.2018 07:00 13,3 C 81 % 1014,3 hPa 0,0 l/m 0,0 km/h O-SO 10,1 C 13,3 C 0,0 km/h
18.09.2018 08:00 20,6 C 69 % 1014,7 hPa 0,0 l/m 0,0 km/h O-SO 14,7 C 20,6 C 0,0 km/h
18.09.2018 09:00 24,2 C 61 % 1014,6 hPa 0,0 l/m 0,0 km/h W-SW 16,2 C 24,2 C 0,0 km/h
18.09.2018 10:00 25,1 C 55 % 1015,0 hPa 0,0 l/m 0,0 km/h W-SW 15,4 C 25,1 C 0,0 km/h
18.09.2018 11:00 26,6 C 53 % 1014,8 hPa 0,0 l/m 2,6 km/h S 16,2 C 26,6 C 1,4 km/h
18.09.2018 12:00 27,5 C 49 % 1014,7 hPa 0,0 l/m 22,7 km/h W-SW 15,8 C 25,7 C 12,6 km/h
18.09.2018 13:00 27,1 C 50 % 1014,1 hPa 0,0 l/m 11,0 km/h W 15,8 C 26,3 C 6,1 km/h
18.09.2018 14:00 27,8 C 47 % 1013,8 hPa 0,0 l/m 7,1 km/h W-SW 15,4 C 27,7 C 4,0 km/h
18.09.2018 15:00 29,4 C 44 % 1012,9 hPa 0,0 l/m 0,0 km/h NW 15,8 C 29,4 C 0,0 km/h
18.09.2018 16:00 28,2 C 44 % 1013,1 hPa 0,0 l/m 0,0 km/h N-NO 14,8 C 28,2 C 0,0 km/h
18.09.2018 17:00 25,3 C 55 % 1013,5 hPa 0,0 l/m 0,0 km/h W-NW 15,6 C 25,3 C 0,0 km/h
18.09.2018 18:00 24,1 C 58 % 1013,7 hPa 0,0 l/m 0,0 km/h S 15,3 C 24,1 C 0,0 km/h
18.09.2018 19:00 21,8 C 64 % 1014,7 hPa 0,0 l/m 0,0 km/h W 14,7 C 21,8 C 0,0 km/h
18.09.2018 20:00 19,9 C 69 % 1014,9 hPa 0,5 l/m 0,0 km/h O 14,0 C 19,9 C 0,0 km/h
18.09.2018 21:00 18,4 C 75 % 1015,7 hPa 0,0 l/m 0,0 km/h O 13,9 C 18,4 C 0,0 km/h
18.09.2018 22:00 18,1 C 77 % 1016,0 hPa 0,0 l/m 0,0 km/h O 14,0 C 18,1 C 0,0 km/h
18.09.2018 23:00 17,0 C 79 % 1016,2 hPa 0,0 l/m 0,0 km/h O 13,3 C 17,0 C 0,0 km/h
19.09.2018 00:00 15,8 C 81 % 1016,3 hPa 0,0 l/m 0,0 km/h O-NO 12,5 C 15,8 C 0,0 km/h
19.09.2018 01:00 15,6 C 81 % 1016,1 hPa 0,0 l/m 0,0 km/h O-NO 12,3 C 15,6 C 0,0 km/h
19.09.2018 02:00 14,8 C 82 % 1016,2 hPa 0,0 l/m 0,0 km/h O-NO 11,8 C 14,8 C 0,0 km/h
19.09.2018 03:00 13,9 C 82 % 1016,4 hPa 0,0 l/m 0,0 km/h SO 10,9 C 13,9 C 0,0 km/h
19.09.2018 04:00 14,2 C 82 % 1016,4 hPa 0,0 l/m 0,0 km/h O-SO 11,2 C 14,2 C 0,0 km/h
19.09.2018 05:00 13,2 C 83 % 1016,6 hPa 0,0 l/m 0,0 km/h O-SO 10,4 C 13,2 C 0,0 km/h
19.09.2018 06:00 13,1 C 83 % 1017,1 hPa 0,0 l/m 0,0 km/h O-NO 10,3 C 13,1 C 0,0 km/h
19.09.2018 07:00 13,1 C 83 % 1017,2 hPa 0,0 l/m 0,0 km/h O 10,3 C 13,1 C 0,0 km/h
19.09.2018 08:00 19,3 C 78 % 1017,9 hPa 0,0 l/m 0,0 km/h S-SW 15,4 C 19,3 C 0,0 km/h
19.09.2018 09:00 22,5 C 67 % 1018,2 hPa 0,0 l/m 0,0 km/h SO 16,1 C 22,5 C 0,0 km/h
19.09.2018 10:00 22,6 C 67 % 1018,2 hPa 0,0 l/m 0,0 km/h N-NW 16,2 C 22,6 C 0,0 km/h
19.09.2018 11:00 24,6 C 59 % 1018,2 hPa 0,0 l/m 0,0 km/h S-SO 16,0 C 24,6 C 0,0 km/h
19.09.2018 12:00 25,6 C 59 % 1017,8 hPa 0,0 l/m 0,0 km/h SW 17,0 C 25,6 C 0,0 km/h
19.09.2018 13:00 27,2 C 55 % 1017,4 hPa 0,0 l/m 0,0 km/h W-SW 17,4 C 27,2 C 0,0 km/h
19.09.2018 14:00 28,3 C 47 % 1016,9 hPa 0,0 l/m 0,0 km/h W-SW 15,9 C 28,3 C 0,0 km/h
19.09.2018 15:00 29,1 C 44 % 1016,4 hPa 0,0 l/m 0,0 km/h W-SW 15,6 C 29,1 C 0,0 km/h
19.09.2018 16:00 29,7 C 41 % 1016,3 hPa 0,0 l/m 0,0 km/h W-SW 15,0 C 29,7 C 0,0 km/h
19.09.2018 17:00 33,2 C 36 % 1016,2 hPa 0,0 l/m 0,0 km/h S 16,1 C 33,2 C 0,0 km/h
19.09.2018 18:00 27,9 C 47 % 1016,3 hPa 0,0 l/m 0,0 km/h O-SO 15,5 C 27,9 C 0,0 km/h
19.09.2018 19:00 23,6 C 57 % 1016,5 hPa 0,0 l/m 0,0 km/h O-SO 14,6 C 23,6 C 0,0 km/h
19.09.2018 20:00 21,4 C 63 % 1016,8 hPa 0,0 l/m 0,0 km/h SO 14,1 C 21,4 C 0,0 km/h
19.09.2018 21:00 20,1 C 68 % 1016,9 hPa 0,0 l/m 0,0 km/h O 14,0 C 20,1 C 0,0 km/h
19.09.2018 22:00 19,3 C 70 % 1017,2 hPa 0,0 l/m 0,0 km/h O-NO 13,7 C 19,3 C 0,0 km/h
19.09.2018 23:00 18,4 C 72 % 1017,5 hPa 0,0 l/m 0,0 km/h O 13,3 C 18,4 C 0,0 km/h
20.09.2018 00:00 17,8 C 74 % 1017,5 hPa 0,0 l/m 0,0 km/h O 13,1 C 17,8 C 0,0 km/h
20.09.2018 01:00 17,2 C 75 % 1017,5 hPa 0,0 l/m 0,0 km/h O 12,7 C 17,2 C 0,0 km/h
20.09.2018 02:00 16,8 C 77 % 1017,1 hPa 0,0 l/m 0,0 km/h O 12,7 C 16,8 C 0,0 km/h
20.09.2018 03:00 15,9 C 79 % 1017,3 hPa 0,0 l/m 0,0 km/h O-NO 12,3 C 15,9 C 0,0 km/h
20.09.2018 04:00 15,6 C 80 % 1017,5 hPa 0,0 l/m 0,0 km/h O-NO 12,2 C 15,6 C 0,0 km/h
20.09.2018 05:00 15,5 C 81 % 1017,5 hPa 0,0 l/m 0,0 km/h O-NO 12,3 C 15,5 C 0,0 km/h
20.09.2018 06:00 15,2 C 81 % 1017,5 hPa 0,0 l/m 0,0 km/h O-NO 12,0 C 15,2 C 0,0 km/h
20.09.2018 07:00 14,9 C 82 % 1017,8 hPa 0,0 l/m 0,0 km/h O-NO 11,9 C 14,9 C 0,0 km/h
20.09.2018 08:00 19,3 C 75 % 1018,2 hPa 0,0 l/m 0,0 km/h O 14,8 C 19,3 C 0,0 km/h
20.09.2018 09:00 25,3 C 61 % 1018,1 hPa 0,0 l/m 0,0 km/h S-SO 17,2 C 25,3 C 0,0 km/h
20.09.2018 10:00 24,1 C 61 % 1017,9 hPa 0,0 l/m 0,0 km/h SW 16,1 C 24,1 C 0,0 km/h
20.09.2018 11:00 25,0 C 59 % 1017,5 hPa 0,0 l/m 0,0 km/h W-NW 16,4 C 25,0 C 0,0 km/h
20.09.2018 12:00 26,5 C 55 % 1017,1 hPa 0,0 l/m 0,0 km/h S 16,7 C 26,5 C 0,0 km/h
20.09.2018 13:00 27,8 C 51 % 1016,3 hPa 0,0 l/m 0,0 km/h SO 16,7 C 27,8 C 0,0 km/h
20.09.2018 14:00 28,3 C 48 % 1015,4 hPa 0,0 l/m 0,0 km/h NW 16,2 C 28,3 C 0,0 km/h
20.09.2018 15:00 29,3 C 42 % 1014,6 hPa 0,0 l/m 0,0 km/h SW 15,0 C 29,3 C 0,0 km/h
20.09.2018 16:00 29,8 C 39 % 1014,0 hPa 0,0 l/m 0,0 km/h W-SW 14,3 C 29,8 C 0,0 km/h
20.09.2018 17:00 32,4 C 34 % 1013,5 hPa 0,0 l/m 0,0 km/h W 14,5 C 32,4 C 0,0 km/h
20.09.2018 18:00 28,1 C 44 % 1013,1 hPa 0,0 l/m 0,0 km/h O-NO 14,7 C 28,1 C 0,0 km/h
20.09.2018 19:00 23,4 C 53 % 1013,1 hPa 0,0 l/m 0,0 km/h O-NO 13,3 C 23,4 C 0,0 km/h
20.09.2018 20:00 20,8 C 62 % 1013,2 hPa 0,0 l/m 0,0 km/h O-NO 13,2 C 20,8 C 0,0 km/h
20.09.2018 21:00 19,4 C 67 % 1012,9 hPa 0,0 l/m 0,0 km/h O 13,1 C 19,4 C 0,0 km/h
20.09.2018 22:00 18,6 C 70 % 1012,7 hPa 0,0 l/m 0,0 km/h O-NO 13,0 C 18,6 C 0,0 km/h
20.09.2018 23:00 17,9 C 71 % 1012,4 hPa 0,0 l/m 0,0 km/h O-SO 12,6 C 17,9 C 0,0 km/h
21.09.2018 00:00 17,4 C 72 % 1012,0 hPa 0,0 l/m 0,0 km/h O-NO 12,3 C 17,4 C 0,0 km/h
21.09.2018 01:00 16,8 C 74 % 1011,7 hPa 0,0 l/m 0,0 km/h O-SO 12,1 C 16,8 C 0,0 km/h
21.09.2018 02:00 16,6 C 74 % 1011,2 hPa 0,0 l/m 0,0 km/h O-SO 11,9 C 16,6 C 0,0 km/h
21.09.2018 03:00 16,1 C 76 % 1010,9 hPa 0,0 l/m 0,0 km/h O-SO 11,9 C 16,1 C 0,0 km/h
21.09.2018 04:00 15,1 C 78 % 1010,7 hPa 0,0 l/m 0,0 km/h O-SO 11,3 C 15,1 C 0,0 km/h
21.09.2018 05:00 15,1 C 80 % 1010,3 hPa 0,0 l/m 0,0 km/h O-NO 11,7 C 15,1 C 0,0 km/h
21.09.2018 06:00 13,9 C 82 % 1010,0 hPa 0,0 l/m 0,0 km/h O-SO 10,9 C 13,9 C 0,0 km/h
21.09.2018 07:00 14,9 C 82 % 1009,8 hPa 0,0 l/m 0,0 km/h NO 11,9 C 14,9 C 0,0 km/h
21.09.2018 08:00 19,9 C 74 % 1009,6 hPa 0,0 l/m 0,0 km/h S-SW 15,1 C 19,9 C 0,0 km/h
21.09.2018 09:00 23,0 C 63 % 1009,5 hPa 0,0 l/m 0,0 km/h W-SW 15,6 C 23,0 C 0,0 km/h
21.09.2018 10:00 25,5 C 54 % 1010,1 hPa 0,0 l/m 0,0 km/h W-SW 15,5 C 25,5 C 0,0 km/h
21.09.2018 11:00 26,4 C 49 % 1009,9 hPa 0,0 l/m 0,0 km/h SW 14,8 C 26,4 C 0,0 km/h
21.09.2018 12:00 25,4 C 51 % 1009,6 hPa 0,0 l/m 5,2 km/h S-SW 14,5 C 25,4 C 2,9 km/h
21.09.2018 13:00 24,9 C 54 % 1009,6 hPa 0,0 l/m 0,0 km/h W-SW 14,9 C 24,9 C 0,0 km/h
21.09.2018 14:00 24,4 C 52 % 1009,6 hPa 0,0 l/m 25,9 km/h W-SW 13,9 C 21,3 C 14,4 km/h
21.09.2018 15:00 24,3 C 49 % 1009,8 hPa 0,0 l/m 19,4 km/h SW 12,9 C 21,8 C 10,8 km/h
21.09.2018 16:00 23,8 C 43 % 1010,1 hPa 0,0 l/m 22,0 km/h N-NW 10,5 C 20,9 C 12,2 km/h
21.09.2018 17:00 18,4 C 62 % 1012,9 hPa 0,0 l/m 18,8 km/h N-NW 11,0 C 14,4 C 10,4 km/h
21.09.2018 18:00 13,8 C 73 % 1015,4 hPa 0,5 l/m 0,0 km/h SO 9,0 C 13,8 C 0,0 km/h
21.09.2018 19:00 12,6 C 81 % 1017,0 hPa 1,6 l/m 3,9 km/h NO 9,4 C 12,6 C 2,2 km/h
21.09.2018 20:00 12,2 C 82 % 1017,7 hPa 0,0 l/m 0,0 km/h NO 9,2 C 12,2 C 0,0 km/h
21.09.2018 21:00 11,9 C 82 % 1018,7 hPa 0,5 l/m 0,0 km/h SO 8,9 C 11,9 C 0,0 km/h
21.09.2018 22:00 11,8 C 83 % 1018,9 hPa 0,0 l/m 0,0 km/h S-SO 9,0 C 11,8 C 0,0 km/h
21.09.2018 23:00 11,6 C 83 % 1019,4 hPa 0,0 l/m 0,0 km/h O-SO 8,8 C 11,6 C 0,0 km/h
22.09.2018 00:00 11,3 C 83 % 1020,2 hPa 0,0 l/m 0,0 km/h O-NO 8,5 C 11,3 C 0,0 km/h
22.09.2018 01:00 10,9 C 82 % 1020,4 hPa 0,0 l/m 0,0 km/h O-NO 7,9 C 10,9 C 0,0 km/h
22.09.2018 02:00 10,9 C 82 % 1020,6 hPa 0,0 l/m 0,0 km/h O-SO 7,9 C 10,9 C 0,0 km/h
22.09.2018 03:00 10,9 C 83 % 1021,0 hPa 0,0 l/m 0,0 km/h O-SO 8,1 C 10,9 C 0,0 km/h
22.09.2018 04:00 10,5 C 82 % 1020,8 hPa 0,0 l/m 0,0 km/h O-SO 7,6 C 10,5 C 0,0 km/h
22.09.2018 05:00 10,1 C 83 % 1021,6 hPa 0,0 l/m 0,0 km/h O-SO 7,3 C 10,1 C 0,0 km/h
22.09.2018 06:00 9,8 C 83 % 1021,0 hPa 0,0 l/m 0,0 km/h O-SO 7,1 C 9,8 C 0,0 km/h
22.09.2018 07:00 9,5 C 83 % 1021,1 hPa 0,0 l/m 0,0 km/h O-SO 6,8 C 9,5 C 0,0 km/h
22.09.2018 08:00 11,8 C 83 % 1021,8 hPa 0,0 l/m 0,0 km/h SO 9,0 C 11,8 C 0,0 km/h
22.09.2018 09:00 12,1 C 83 % 1021,8 hPa 0,0 l/m 0,0 km/h SO 9,3 C 12,1 C 0,0 km/h
22.09.2018 10:00 13,9 C 83 % 1022,0 hPa 0,0 l/m 0,0 km/h S-SW 11,1 C 13,9 C 0,0 km/h
22.09.2018 11:00 14,9 C 80 % 1021,8 hPa 0,0 l/m 0,0 km/h W-SW 11,5 C 14,9 C 0,0 km/h
22.09.2018 12:00 15,9 C 75 % 1021,1 hPa 0,0 l/m 0,0 km/h SO 11,5 C 15,9 C 0,0 km/h
22.09.2018 13:00 17,1 C 68 % 1020,2 hPa 0,0 l/m 6,5 km/h W-NW 11,1 C 17,1 C 3,6 km/h
22.09.2018 14:00 18,6 C 56 % 1019,7 hPa 0,0 l/m 0,0 km/h W 9,6 C 18,6 C 0,0 km/h
22.09.2018 15:00 19,0 C 52 % 1018,9 hPa 0,0 l/m 0,0 km/h S-SO 8,9 C 19,0 C 0,0 km/h
22.09.2018 16:00 19,4 C 51 % 1018,1 hPa 0,0 l/m 0,0 km/h W-SW 9,0 C 19,4 C 0,0 km/h
22.09.2018 17:00 18,9 C 46 % 1017,7 hPa 0,0 l/m 3,2 km/h S 7,0 C 18,9 C 1,8 km/h
22.09.2018 18:00 18,2 C 48 % 1017,5 hPa 0,0 l/m 1,9 km/h S-SW 7,0 C 18,2 C 1,1 km/h
22.09.2018 19:00 17,0 C 56 % 1017,5 hPa 0,0 l/m 0,0 km/h O-NO 8,2 C 17,0 C 0,0 km/h
22.09.2018 20:00 15,5 C 66 % 1017,8 hPa 0,0 l/m 0,0 km/h O-NO 9,2 C 15,5 C 0,0 km/h
22.09.2018 21:00 14,7 C 72 % 1018,0 hPa 0,0 l/m 0,0 km/h S-SO 9,7 C 14,7 C 0,0 km/h
22.09.2018 22:00 14,3 C 74 % 1018,4 hPa 0,0 l/m 1,3 km/h O-SO 9,7 C 14,3 C 0,7 km/h
22.09.2018 23:00 14,7 C 72 % 1017,7 hPa 0,0 l/m 0,0 km/h S-SW 9,7 C 14,7 C 0,0 km/h
23.09.2018 00:00 15,1 C 69 % 1017,8 hPa 0,0 l/m 8,4 km/h O-SO 9,5 C 14,0 C 4,7 km/h
23.09.2018 01:00 15,3 C 68 % 1017,4 hPa 0,0 l/m 0,0 km/h O-SO 9,4 C 15,3 C 0,0 km/h
23.09.2018 02:00 15,2 C 73 % 1016,1 hPa 0,0 l/m 0,0 km/h S-SW 10,4 C 15,2 C 0,0 km/h
23.09.2018 03:00 17,1 C 67 % 1015,3 hPa 0,0 l/m 3,2 km/h W-NW 10,9 C 17,1 C 1,8 km/h
23.09.2018 04:00 18,4 C 60 % 1014,8 hPa 0,0 l/m 25,3 km/h SW 10,5 C 13,2 C 14,0 km/h
23.09.2018 05:00 17,9 C 63 % 1014,6 hPa 0,0 l/m 29,8 km/h SW 10,8 C 11,8 C 16,6 km/h
23.09.2018 06:00 17,8 C 67 % 1014,3 hPa 0,0 l/m 16,2 km/h SW 11,6 C 14,3 C 9,0 km/h
23.09.2018 07:00 18,8 C 68 % 1014,1 hPa 0,0 l/m 27,9 km/h S 12,8 C 13,3 C 15,5 km/h
23.09.2018 08:00 17,9 C 74 % 1014,3 hPa 0,0 l/m 0,0 km/h W-SW 13,2 C 17,9 C 0,0 km/h
23.09.2018 09:00 19,3 C 73 % 1014,3 hPa 0,0 l/m 20,7 km/h W-SW 14,3 C 15,2 C 11,5 km/h
23.09.2018 10:00 19,9 C 73 % 1014,1 hPa 0,0 l/m 42,1 km/h SW 14,9 C 13,4 C 23,4 km/h
23.09.2018 11:00 20,6 C 73 % 1013,7 hPa 0,0 l/m 31,1 km/h W 15,6 C 15,4 C 17,3 km/h
23.09.2018 12:00 21,5 C 72 % 1013,0 hPa 0,0 l/m 24,6 km/h SW 16,2 C 17,5 C 13,7 km/h
23.09.2018 13:00 23,3 C 69 % 1012,2 hPa 0,0 l/m 53,8 km/h W 17,3 C 18,0 C 29,9 km/h
23.09.2018 14:00 23,0 C 69 % 1011,1 hPa 0,0 l/m 24,6 km/h SW 17,0 C 19,5 C 13,7 km/h
23.09.2018 15:00 23,5 C 67 % 1010,1 hPa 0,0 l/m 28,5 km/h W-SW 17,0 C 19,8 C 15,8 km/h
23.09.2018 16:00 23,9 C 64 % 1009,6 hPa 0,0 l/m 21,4 km/h SW 16,7 C 21,1 C 11,9 km/h
23.09.2018 17:00 23,6 C 64 % 1008,1 hPa 0,0 l/m 45,4 km/h NW 16,4 C 18,8 C 25,2 km/h
23.09.2018 18:00 23,9 C 62 % 1007,5 hPa 0,0 l/m 40,8 km/h N-NW 16,2 C 19,5 C 22,7 km/h
23.09.2018 19:00 18,6 C 74 % 1010,2 hPa 6,2 l/m 5,2 km/h W 13,9 C 18,6 C 2,9 km/h
23.09.2018 20:00 14,6 C 82 % 1013,6 hPa 6,7 l/m 0,0 km/h N 11,6 C 14,6 C 0,0 km/h
23.09.2018 21:00 13,6 C 83 % 1015,8 hPa 1,0 l/m 0,0 km/h NW 10,8 C 13,6 C 0,0 km/h
23.09.2018 22:00 13,0 C 81 % 1018,1 hPa 0,0 l/m 0,0 km/h N-NW 9,8 C 13,0 C 0,0 km/h
23.09.2018 23:00 12,5 C 81 % 1019,7 hPa 0,0 l/m 0,0 km/h N-NO 9,3 C 12,5 C 0,0 km/h
Min-Datum _ 22.09.18 17.09.18 23.09.18 - 17.09.18 - 22.09.18 22.09.18 17.09.18
_ Min-Zeit 07:53 17:53 18:53 - 00:53 - 07:53 07:53 00:53
Minimum _ 9,5 C 30 % 1007,5 hPa - 0,0 km/h - 6,8 C 9,5 C 0,0 km/h
Max-Datum _ 19.09.18 17.09.18 22.09.18 23.09.18 23.09.18 - 19.09.18 19.09.18 23.09.18
_ Max-Zeit 17:53 02:53 10:53 20:53 13:53 - 13:53 17:53 13:53
Maximum _ 33,2 C 83 % 1022,0 hPa 6,7 l/m 53,8 km/h
W
- 17,4 C 33,2 C 29,9 km/h
W
Durchschnitt _ 19,2 C 67 % 1015,7 hPa #17,1 l/m 3,7 km/h O-NO 12,5 C 18,7 C 2,1 km/h
www.sexauwetter.de